sensor_id;sensor_type;location;lat;lon;timestamp;P1;durP1;ratioP1;P2;durP2;ratioP2
39882;SDS011;55824;52.220;21.040;2023-03-08T00:02:17;2.05;;;1.20;;
39882;SDS011;55824;52.220;21.040;2023-03-08T00:04:43;1.92;;;1.42;;
39882;SDS011;55824;52.220;21.040;2023-03-08T00:07:09;1.60;;;1.10;;
39882;SDS011;55824;52.220;21.040;2023-03-08T00:09:38;2.92;;;1.50;;
39882;SDS011;55824;52.220;21.040;2023-03-08T00:12:04;1.53;;;1.13;;
39882;SDS011;55824;52.220;21.040;2023-03-08T00:14:31;2.30;;;1.30;;
39882;SDS011;55824;52.220;21.040;2023-03-08T00:16:57;1.80;;;1.30;;
39882;SDS011;55824;52.220;21.040;2023-03-08T00:19:23;2.15;;;1.13;;
39882;SDS011;55824;52.220;21.040;2023-03-08T00:21:49;2.25;;;1.25;;
39882;SDS011;55824;52.220;21.040;2023-03-08T00:24:15;2.15;;;1.25;;
39882;SDS011;55824;52.220;21.040;2023-03-08T00:26:42;2.55;;;1.48;;
39882;SDS011;55824;52.220;21.040;2023-03-08T00:29:08;1.63;;;1.00;;
39882;SDS011;55824;52.220;21.040;2023-03-08T00:31:34;1.88;;;1.17;;
39882;SDS011;55824;52.220;21.040;2023-03-08T00:33:59;1.95;;;1.38;;
39882;SDS011;55824;52.220;21.040;2023-03-08T00:36:26;2.28;;;1.30;;
39882;SDS011;55824;52.220;21.040;2023-03-08T00:38:52;2.13;;;1.38;;
39882;SDS011;55824;52.220;21.040;2023-03-08T00:41:18;2.85;;;1.40;;
39882;SDS011;55824;52.220;21.040;2023-03-08T00:43:44;1.42;;;1.02;;
39882;SDS011;55824;52.220;21.040;2023-03-08T00:46:10;2.88;;;1.40;;
39882;SDS011;55824;52.220;21.040;2023-03-08T00:48:37;1.25;;;1.00;;
39882;SDS011;55824;52.220;21.040;2023-03-08T00:51:03;2.45;;;1.30;;
39882;SDS011;55824;52.220;21.040;2023-03-08T00:53:29;1.90;;;1.02;;
39882;SDS011;55824;52.220;21.040;2023-03-08T00:55:56;2.33;;;1.35;;
39882;SDS011;55824;52.220;21.040;2023-03-08T00:58:23;2.22;;;1.38;;
39882;SDS011;55824;52.220;21.040;2023-03-08T01:00:49;2.42;;;1.25;;
39882;SDS011;55824;52.220;21.040;2023-03-08T01:03:15;3.95;;;1.30;;
39882;SDS011;55824;52.220;21.040;2023-03-08T01:05:42;1.60;;;1.10;;
39882;SDS011;55824;52.220;21.040;2023-03-08T01:08:09;1.73;;;1.05;;
39882;SDS011;55824;52.220;21.040;2023-03-08T01:10:36;2.20;;;1.23;;
39882;SDS011;55824;52.220;21.040;2023-03-08T01:13:02;2.03;;;1.17;;
39882;SDS011;55824;52.220;21.040;2023-03-08T01:15:28;1.10;;;1.00;;
39882;SDS011;55824;52.220;21.040;2023-03-08T01:17:54;1.92;;;1.25;;
39882;SDS011;55824;52.220;21.040;2023-03-08T01:20:20;1.63;;;1.13;;
39882;SDS011;55824;52.220;21.040;2023-03-08T01:22:46;2.30;;;1.10;;
39882;SDS011;55824;52.220;21.040;2023-03-08T01:25:12;3.42;;;1.23;;
39882;SDS011;55824;52.220;21.040;2023-03-08T01:27:38;1.90;;;0.90;;
39882;SDS011;55824;52.220;21.040;2023-03-08T01:30:05;1.95;;;1.40;;
39882;SDS011;55824;52.220;21.040;2023-03-08T01:32:31;1.42;;;1.02;;
39882;SDS011;55824;52.220;21.040;2023-03-08T01:34:57;1.27;;;0.98;;
39882;SDS011;55824;52.220;21.040;2023-03-08T01:37:28;0.95;;;0.85;;
39882;SDS011;55824;52.220;21.040;2023-03-08T01:39:54;1.30;;;1.00;;
39882;SDS011;55824;52.220;21.040;2023-03-08T01:42:20;1.75;;;0.95;;
39882;SDS011;55824;52.220;21.040;2023-03-08T01:44:47;1.73;;;1.15;;
39882;SDS011;55824;52.220;21.040;2023-03-08T01:47:16;1.60;;;0.90;;
39882;SDS011;55824;52.220;21.040;2023-03-08T01:49:44;1.52;;;0.85;;
39882;SDS011;55824;52.220;21.040;2023-03-08T01:52:11;1.77;;;1.15;;
39882;SDS011;55824;52.220;21.040;2023-03-08T01:54:39;2.00;;;1.00;;
39882;SDS011;55824;52.220;21.040;2023-03-08T01:57:19;2.10;;;1.00;;
39882;SDS011;55824;52.220;21.040;2023-03-08T01:59:47;1.20;;;0.90;;
39882;SDS011;55824;52.220;21.040;2023-03-08T02:02:15;1.70;;;1.10;;
39882;SDS011;55824;52.220;21.040;2023-03-08T02:04:41;1.00;;;0.90;;
39882;SDS011;55824;52.220;21.040;2023-03-08T02:07:07;1.92;;;1.00;;
39882;SDS011;55824;52.220;21.040;2023-03-08T02:09:33;1.70;;;0.90;;
39882;SDS011;55824;52.220;21.040;2023-03-08T02:12:00;1.02;;;0.85;;
39882;SDS011;55824;52.220;21.040;2023-03-08T02:14:26;1.98;;;0.93;;
39882;SDS011;55824;52.220;21.040;2023-03-08T02:16:53;1.20;;;0.73;;
39882;SDS011;55824;52.220;21.040;2023-03-08T02:19:19;1.17;;;0.90;;
39882;SDS011;55824;52.220;21.040;2023-03-08T02:21:47;1.08;;;0.70;;
39882;SDS011;55824;52.220;21.040;2023-03-08T02:24:16;1.20;;;1.00;;
39882;SDS011;55824;52.220;21.040;2023-03-08T02:26:42;1.45;;;0.80;;
39882;SDS011;55824;52.220;21.040;2023-03-08T02:29:09;1.38;;;0.95;;
39882;SDS011;55824;52.220;21.040;2023-03-08T02:31:36;1.15;;;0.82;;
39882;SDS011;55824;52.220;21.040;2023-03-08T02:34:02;1.63;;;0.80;;
39882;SDS011;55824;52.220;21.040;2023-03-08T02:36:28;4.15;;;1.05;;
39882;SDS011;55824;52.220;21.040;2023-03-08T02:38:53;1.40;;;1.00;;
39882;SDS011;55824;52.220;21.040;2023-03-08T02:41:19;1.40;;;0.88;;
39882;SDS011;55824;52.220;21.040;2023-03-08T02:43:45;1.30;;;0.70;;
39882;SDS011;55824;52.220;21.040;2023-03-08T02:46:12;2.13;;;1.02;;
39882;SDS011;55824;52.220;21.040;2023-03-08T02:48:38;6.68;;;0.90;;
39882;SDS011;55824;52.220;21.040;2023-03-08T02:51:04;1.60;;;1.00;;
39882;SDS011;55824;52.220;21.040;2023-03-08T02:53:30;1.55;;;0.80;;
39882;SDS011;55824;52.220;21.040;2023-03-08T02:55:56;1.25;;;0.85;;
39882;SDS011;55824;52.220;21.040;2023-03-08T02:58:22;1.02;;;0.63;;
39882;SDS011;55824;52.220;21.040;2023-03-08T03:00:48;1.13;;;0.80;;
39882;SDS011;55824;52.220;21.040;2023-03-08T03:03:14;1.38;;;0.80;;
39882;SDS011;55824;52.220;21.040;2023-03-08T03:05:41;0.75;;;0.75;;
39882;SDS011;55824;52.220;21.040;2023-03-08T03:08:08;1.50;;;0.93;;
39882;SDS011;55824;52.220;21.040;2023-03-08T03:10:34;0.80;;;0.80;;
39882;SDS011;55824;52.220;21.040;2023-03-08T03:13:00;2.28;;;0.95;;
39882;SDS011;55824;52.220;21.040;2023-03-08T03:15:26;1.25;;;0.90;;
39882;SDS011;55824;52.220;21.040;2023-03-08T03:17:52;0.95;;;0.80;;
39882;SDS011;55824;52.220;21.040;2023-03-08T03:20:18;1.83;;;0.88;;
39882;SDS011;55824;52.220;21.040;2023-03-08T03:22:44;0.95;;;0.73;;
39882;SDS011;55824;52.220;21.040;2023-03-08T03:25:11;1.88;;;0.93;;
39882;SDS011;55824;52.220;21.040;2023-03-08T03:27:37;1.15;;;0.85;;
39882;SDS011;55824;52.220;21.040;2023-03-08T03:30:04;1.98;;;0.93;;
39882;SDS011;55824;52.220;21.040;2023-03-08T03:32:30;1.48;;;0.82;;
39882;SDS011;55824;52.220;21.040;2023-03-08T03:34:56;0.93;;;0.70;;
39882;SDS011;55824;52.220;21.040;2023-03-08T03:37:22;2.00;;;0.65;;
39882;SDS011;55824;52.220;21.040;2023-03-08T03:39:48;1.45;;;0.90;;
39882;SDS011;55824;52.220;21.040;2023-03-08T03:42:15;1.60;;;0.82;;
39882;SDS011;55824;52.220;21.040;2023-03-08T03:44:42;1.65;;;0.70;;
39882;SDS011;55824;52.220;21.040;2023-03-08T03:47:08;1.58;;;0.85;;
39882;SDS011;55824;52.220;21.040;2023-03-08T03:49:34;4.15;;;0.80;;
39882;SDS011;55824;52.220;21.040;2023-03-08T03:52:00;1.73;;;0.88;;
39882;SDS011;55824;52.220;21.040;2023-03-08T03:54:26;1.50;;;1.05;;
39882;SDS011;55824;52.220;21.040;2023-03-08T03:56:51;1.67;;;0.85;;
39882;SDS011;55824;52.220;21.040;2023-03-08T03:59:22;1.23;;;0.80;;
39882;SDS011;55824;52.220;21.040;2023-03-08T04:01:48;1.52;;;0.82;;
39882;SDS011;55824;52.220;21.040;2023-03-08T04:04:14;0.90;;;0.80;;
39882;SDS011;55824;52.220;21.040;2023-03-08T04:06:40;3.17;;;1.02;;
39882;SDS011;55824;52.220;21.040;2023-03-08T04:09:07;1.65;;;1.00;;
39882;SDS011;55824;52.220;21.040;2023-03-08T04:11:34;1.30;;;0.90;;
39882;SDS011;55824;52.220;21.040;2023-03-08T04:14:00;1.60;;;1.02;;
39882;SDS011;55824;52.220;21.040;2023-03-08T04:16:27;0.82;;;0.70;;
39882;SDS011;55824;52.220;21.040;2023-03-08T04:18:55;1.90;;;1.02;;
39882;SDS011;55824;52.220;21.040;2023-03-08T04:21:21;1.67;;;0.90;;
39882;SDS011;55824;52.220;21.040;2023-03-08T04:23:47;1.70;;;1.02;;
39882;SDS011;55824;52.220;21.040;2023-03-08T04:26:14;1.00;;;0.85;;
39882;SDS011;55824;52.220;21.040;2023-03-08T04:28:40;1.38;;;1.00;;
39882;SDS011;55824;52.220;21.040;2023-03-08T04:33:41;1.05;;;0.90;;
39882;SDS011;55824;52.220;21.040;2023-03-08T04:36:08;1.05;;;0.90;;
39882;SDS011;55824;52.220;21.040;2023-03-08T04:38:34;1.73;;;1.00;;
39882;SDS011;55824;52.220;21.040;2023-03-08T04:41:00;2.17;;;1.30;;
39882;SDS011;55824;52.220;21.040;2023-03-08T04:43:29;1.63;;;0.98;;
39882;SDS011;55824;52.220;21.040;2023-03-08T04:45:55;1.65;;;1.15;;
39882;SDS011;55824;52.220;21.040;2023-03-08T04:48:21;1.67;;;1.00;;
39882;SDS011;55824;52.220;21.040;2023-03-08T04:50:54;0.80;;;0.80;;
39882;SDS011;55824;52.220;21.040;2023-03-08T04:53:20;2.28;;;1.15;;
39882;SDS011;55824;52.220;21.040;2023-03-08T04:55:46;1.92;;;1.15;;
39882;SDS011;55824;52.220;21.040;2023-03-08T04:58:12;2.08;;;1.20;;
39882;SDS011;55824;52.220;21.040;2023-03-08T05:00:39;1.90;;;1.10;;
39882;SDS011;55824;52.220;21.040;2023-03-08T05:03:05;2.50;;;1.15;;
39882;SDS011;55824;52.220;21.040;2023-03-08T05:05:31;2.72;;;1.70;;
39882;SDS011;55824;52.220;21.040;2023-03-08T05:07:57;1.27;;;1.13;;
39882;SDS011;55824;52.220;21.040;2023-03-08T05:10:29;2.22;;;1.48;;
39882;SDS011;55824;52.220;21.040;2023-03-08T05:12:55;1.85;;;1.30;;
39882;SDS011;55824;52.220;21.040;2023-03-08T05:15:21;2.50;;;1.45;;
39882;SDS011;55824;52.220;21.040;2023-03-08T05:17:47;1.27;;;1.15;;
39882;SDS011;55824;52.220;21.040;2023-03-08T05:20:13;2.33;;;1.13;;
39882;SDS011;55824;52.220;21.040;2023-03-08T05:22:39;1.75;;;1.42;;
39882;SDS011;55824;52.220;21.040;2023-03-08T05:25:05;2.20;;;1.42;;
39882;SDS011;55824;52.220;21.040;2023-03-08T05:27:34;1.10;;;1.00;;
39882;SDS011;55824;52.220;21.040;2023-03-08T05:30:00;3.57;;;1.67;;
39882;SDS011;55824;52.220;21.040;2023-03-08T05:32:27;1.85;;;1.20;;
39882;SDS011;55824;52.220;21.040;2023-03-08T05:34:53;4.43;;;1.50;;
39882;SDS011;55824;52.220;21.040;2023-03-08T05:37:19;2.65;;;1.33;;
39882;SDS011;55824;52.220;21.040;2023-03-08T05:39:46;6.30;;;2.28;;
39882;SDS011;55824;52.220;21.040;2023-03-08T05:42:12;13.40;;;1.95;;
39882;SDS011;55824;52.220;21.040;2023-03-08T05:44:38;6.10;;;2.00;;
39882;SDS011;55824;52.220;21.040;2023-03-08T05:47:04;8.85;;;2.97;;
39882;SDS011;55824;52.220;21.040;2023-03-08T05:49:31;8.88;;;2.45;;
39882;SDS011;55824;52.220;21.040;2023-03-08T05:51:57;8.50;;;3.03;;
39882;SDS011;55824;52.220;21.040;2023-03-08T05:54:23;6.75;;;2.55;;
39882;SDS011;55824;52.220;21.040;2023-03-08T05:56:49;7.60;;;2.38;;
39882;SDS011;55824;52.220;21.040;2023-03-08T05:59:15;6.80;;;2.10;;
39882;SDS011;55824;52.220;21.040;2023-03-08T06:01:41;6.25;;;2.10;;
39882;SDS011;55824;52.220;21.040;2023-03-08T06:04:07;5.90;;;2.70;;
39882;SDS011;55824;52.220;21.040;2023-03-08T06:06:33;6.57;;;2.25;;
39882;SDS011;55824;52.220;21.040;2023-03-08T06:08:58;8.65;;;1.98;;
39882;SDS011;55824;52.220;21.040;2023-03-08T06:11:24;9.75;;;2.75;;
39882;SDS011;55824;52.220;21.040;2023-03-08T06:13:50;10.35;;;2.75;;
39882;SDS011;55824;52.220;21.040;2023-03-08T06:16:16;10.18;;;2.42;;
39882;SDS011;55824;52.220;21.040;2023-03-08T06:18:42;8.07;;;2.67;;
39882;SDS011;55824;52.220;21.040;2023-03-08T06:23:37;15.00;;;2.97;;
39882;SDS011;55824;52.220;21.040;2023-03-08T06:26:04;5.82;;;2.85;;
39882;SDS011;55824;52.220;21.040;2023-03-08T06:28:30;6.13;;;1.90;;
39882;SDS011;55824;52.220;21.040;2023-03-08T06:30:57;5.47;;;2.42;;
39882;SDS011;55824;52.220;21.040;2023-03-08T06:33:27;5.70;;;2.00;;
39882;SDS011;55824;52.220;21.040;2023-03-08T06:35:54;7.15;;;1.83;;
39882;SDS011;55824;52.220;21.040;2023-03-08T06:38:21;5.93;;;1.88;;
39882;SDS011;55824;52.220;21.040;2023-03-08T06:40:47;9.20;;;1.88;;
39882;SDS011;55824;52.220;21.040;2023-03-08T06:43:12;5.63;;;1.77;;
39882;SDS011;55824;52.220;21.040;2023-03-08T06:45:39;10.40;;;2.53;;
39882;SDS011;55824;52.220;21.040;2023-03-08T06:48:05;4.57;;;1.77;;
39882;SDS011;55824;52.220;21.040;2023-03-08T06:50:31;3.63;;;1.67;;
39882;SDS011;55824;52.220;21.040;2023-03-08T06:52:57;4.63;;;1.70;;
39882;SDS011;55824;52.220;21.040;2023-03-08T06:55:24;8.80;;;2.22;;
39882;SDS011;55824;52.220;21.040;2023-03-08T06:57:50;3.63;;;2.00;;
39882;SDS011;55824;52.220;21.040;2023-03-08T07:00:16;3.17;;;1.90;;
39882;SDS011;55824;52.220;21.040;2023-03-08T07:02:42;4.10;;;1.70;;
39882;SDS011;55824;52.220;21.040;2023-03-08T07:05:08;4.93;;;1.90;;
39882;SDS011;55824;52.220;21.040;2023-03-08T07:07:34;3.78;;;2.03;;
39882;SDS011;55824;52.220;21.040;2023-03-08T07:10:01;4.97;;;2.20;;
39882;SDS011;55824;52.220;21.040;2023-03-08T07:12:27;3.40;;;1.80;;
39882;SDS011;55824;52.220;21.040;2023-03-08T07:14:55;3.17;;;1.75;;
39882;SDS011;55824;52.220;21.040;2023-03-08T07:17:21;2.63;;;1.52;;
39882;SDS011;55824;52.220;21.040;2023-03-08T07:19:47;5.18;;;1.88;;
39882;SDS011;55824;52.220;21.040;2023-03-08T07:22:13;4.53;;;1.90;;
39882;SDS011;55824;52.220;21.040;2023-03-08T07:24:39;3.45;;;1.70;;
39882;SDS011;55824;52.220;21.040;2023-03-08T07:27:05;2.97;;;1.45;;
39882;SDS011;55824;52.220;21.040;2023-03-08T07:29:31;4.90;;;1.60;;
39882;SDS011;55824;52.220;21.040;2023-03-08T07:31:57;6.00;;;2.05;;
39882;SDS011;55824;52.220;21.040;2023-03-08T07:34:23;3.65;;;1.92;;
39882;SDS011;55824;52.220;21.040;2023-03-08T07:36:48;4.05;;;1.90;;
39882;SDS011;55824;52.220;21.040;2023-03-08T07:39:15;3.05;;;1.80;;
39882;SDS011;55824;52.220;21.040;2023-03-08T07:41:41;2.67;;;1.42;;
39882;SDS011;55824;52.220;21.040;2023-03-08T07:44:07;4.20;;;1.90;;
39882;SDS011;55824;52.220;21.040;2023-03-08T07:46:33;3.70;;;2.05;;
39882;SDS011;55824;52.220;21.040;2023-03-08T07:48:59;2.97;;;1.65;;
39882;SDS011;55824;52.220;21.040;2023-03-08T07:51:25;3.55;;;1.75;;
39882;SDS011;55824;52.220;21.040;2023-03-08T07:53:51;4.80;;;1.92;;
39882;SDS011;55824;52.220;21.040;2023-03-08T07:56:17;4.85;;;2.00;;
39882;SDS011;55824;52.220;21.040;2023-03-08T07:58:43;3.65;;;2.10;;
39882;SDS011;55824;52.220;21.040;2023-03-08T08:01:10;3.35;;;1.75;;
39882;SDS011;55824;52.220;21.040;2023-03-08T08:03:36;3.28;;;1.73;;
39882;SDS011;55824;52.220;21.040;2023-03-08T08:06:06;2.72;;;1.48;;
39882;SDS011;55824;52.220;21.040;2023-03-08T08:08:32;3.05;;;1.65;;
39882;SDS011;55824;52.220;21.040;2023-03-08T08:10:58;2.70;;;1.70;;
39882;SDS011;55824;52.220;21.040;2023-03-08T08:13:24;2.92;;;1.90;;
39882;SDS011;55824;52.220;21.040;2023-03-08T08:15:57;2.17;;;1.40;;
39882;SDS011;55824;52.220;21.040;2023-03-08T08:18:23;3.10;;;1.60;;
39882;SDS011;55824;52.220;21.040;2023-03-08T08:20:49;2.75;;;1.45;;
39882;SDS011;55824;52.220;21.040;2023-03-08T08:23:15;3.83;;;1.70;;
39882;SDS011;55824;52.220;21.040;2023-03-08T08:25:41;2.83;;;1.70;;
39882;SDS011;55824;52.220;21.040;2023-03-08T08:28:10;2.85;;;1.70;;
39882;SDS011;55824;52.220;21.040;2023-03-08T08:30:36;3.80;;;1.95;;
39882;SDS011;55824;52.220;21.040;2023-03-08T08:33:02;2.45;;;1.40;;
39882;SDS011;55824;52.220;21.040;2023-03-08T08:35:28;3.38;;;1.90;;
39882;SDS011;55824;52.220;21.040;2023-03-08T08:37:54;2.78;;;1.73;;
39882;SDS011;55824;52.220;21.040;2023-03-08T08:40:20;3.63;;;1.42;;
39882;SDS011;55824;52.220;21.040;2023-03-08T08:42:46;2.92;;;1.50;;
39882;SDS011;55824;52.220;21.040;2023-03-08T08:45:12;2.55;;;1.70;;
39882;SDS011;55824;52.220;21.040;2023-03-08T08:47:38;4.32;;;1.80;;
39882;SDS011;55824;52.220;21.040;2023-03-08T08:50:04;3.42;;;1.98;;
39882;SDS011;55824;52.220;21.040;2023-03-08T08:52:30;3.65;;;1.75;;
39882;SDS011;55824;52.220;21.040;2023-03-08T08:54:56;3.45;;;1.70;;
39882;SDS011;55824;52.220;21.040;2023-03-08T08:57:22;1.77;;;1.50;;
39882;SDS011;55824;52.220;21.040;2023-03-08T08:59:48;2.05;;;1.30;;
39882;SDS011;55824;52.220;21.040;2023-03-08T09:02:14;2.40;;;1.50;;
39882;SDS011;55824;52.220;21.040;2023-03-08T09:04:40;2.35;;;1.40;;
39882;SDS011;55824;52.220;21.040;2023-03-08T09:07:06;4.07;;;1.60;;
39882;SDS011;55824;52.220;21.040;2023-03-08T09:09:32;3.20;;;1.38;;
39882;SDS011;55824;52.220;21.040;2023-03-08T09:11:58;2.42;;;1.65;;
39882;SDS011;55824;52.220;21.040;2023-03-08T09:14:24;2.72;;;1.65;;
39882;SDS011;55824;52.220;21.040;2023-03-08T09:16:50;2.08;;;1.48;;
39882;SDS011;55824;52.220;21.040;2023-03-08T09:19:16;2.42;;;1.40;;
39882;SDS011;55824;52.220;21.040;2023-03-08T09:21:42;3.22;;;1.77;;
39882;SDS011;55824;52.220;21.040;2023-03-08T09:24:09;4.00;;;1.60;;
39882;SDS011;55824;52.220;21.040;2023-03-08T09:26:35;3.88;;;1.63;;
39882;SDS011;55824;52.220;21.040;2023-03-08T09:29:01;2.85;;;1.50;;
39882;SDS011;55824;52.220;21.040;2023-03-08T09:31:31;2.42;;;1.80;;
39882;SDS011;55824;52.220;21.040;2023-03-08T09:33:58;3.25;;;1.60;;
39882;SDS011;55824;52.220;21.040;2023-03-08T09:36:24;3.63;;;1.52;;
39882;SDS011;55824;52.220;21.040;2023-03-08T09:38:52;3.47;;;1.77;;
39882;SDS011;55824;52.220;21.040;2023-03-08T09:44:03;4.20;;;1.70;;
39882;SDS011;55824;52.220;21.040;2023-03-08T09:46:31;3.53;;;1.77;;
39882;SDS011;55824;52.220;21.040;2023-03-08T09:48:58;4.30;;;2.03;;
39882;SDS011;55824;52.220;21.040;2023-03-08T09:51:28;5.07;;;1.70;;
39882;SDS011;55824;52.220;21.040;2023-03-08T09:54:01;4.25;;;1.80;;
39882;SDS011;55824;52.220;21.040;2023-03-08T09:56:41;2.72;;;1.63;;
39882;SDS011;55824;52.220;21.040;2023-03-08T09:59:12;3.25;;;2.13;;
39882;SDS011;55824;52.220;21.040;2023-03-08T10:12:00;3.22;;;1.50;;
39882;SDS011;55824;52.220;21.040;2023-03-08T10:14:31;3.05;;;1.50;;
39882;SDS011;55824;52.220;21.040;2023-03-08T10:17:02;2.50;;;1.30;;
39882;SDS011;55824;52.220;21.040;2023-03-08T10:19:34;3.15;;;1.60;;
39882;SDS011;55824;52.220;21.040;2023-03-08T10:22:11;2.72;;;1.52;;
39882;SDS011;55824;52.220;21.040;2023-03-08T10:24:44;3.55;;;1.38;;
39882;SDS011;55824;52.220;21.040;2023-03-08T10:27:15;3.85;;;1.80;;
39882;SDS011;55824;52.220;21.040;2023-03-08T10:29:47;2.88;;;1.67;;
39882;SDS011;55824;52.220;21.040;2023-03-08T10:32:13;2.22;;;1.50;;
39882;SDS011;55824;52.220;21.040;2023-03-08T10:34:39;2.40;;;1.70;;
39882;SDS011;55824;52.220;21.040;2023-03-08T10:37:05;2.03;;;1.40;;
39882;SDS011;55824;52.220;21.040;2023-03-08T10:39:33;2.58;;;1.55;;
39882;SDS011;55824;52.220;21.040;2023-03-08T10:42:00;3.45;;;1.60;;
39882;SDS011;55824;52.220;21.040;2023-03-08T10:44:40;3.03;;;1.50;;
39882;SDS011;55824;52.220;21.040;2023-03-08T10:47:20;3.08;;;1.50;;
39882;SDS011;55824;52.220;21.040;2023-03-08T10:49:47;2.35;;;1.45;;
39882;SDS011;55824;52.220;21.040;2023-03-08T10:52:19;2.70;;;1.20;;
39882;SDS011;55824;52.220;21.040;2023-03-08T10:54:46;5.50;;;1.50;;
39882;SDS011;55824;52.220;21.040;2023-03-08T10:57:16;2.55;;;1.80;;
39882;SDS011;55824;52.220;21.040;2023-03-08T10:59:47;2.55;;;1.55;;
39882;SDS011;55824;52.220;21.040;2023-03-08T11:02:16;3.13;;;1.63;;
39882;SDS011;55824;52.220;21.040;2023-03-08T11:04:56;2.97;;;1.70;;
39882;SDS011;55824;52.220;21.040;2023-03-08T11:07:26;3.20;;;1.50;;
39882;SDS011;55824;52.220;21.040;2023-03-08T11:12:37;2.10;;;1.33;;
39882;SDS011;55824;52.220;21.040;2023-03-08T11:15:13;2.63;;;1.60;;
39882;SDS011;55824;52.220;21.040;2023-03-08T11:17:42;2.67;;;1.50;;
39882;SDS011;55824;52.220;21.040;2023-03-08T11:20:19;3.70;;;1.65;;
39882;SDS011;55824;52.220;21.040;2023-03-08T11:27:59;3.38;;;1.30;;
39882;SDS011;55824;52.220;21.040;2023-03-08T11:33:24;2.85;;;1.67;;
39882;SDS011;55824;52.220;21.040;2023-03-08T11:38:28;2.20;;;1.52;;
39882;SDS011;55824;52.220;21.040;2023-03-08T11:41:00;2.40;;;1.50;;
39882;SDS011;55824;52.220;21.040;2023-03-08T11:46:11;1.92;;;1.33;;
39882;SDS011;55824;52.220;21.040;2023-03-08T11:51:24;3.70;;;1.25;;
39882;SDS011;55824;52.220;21.040;2023-03-08T12:07:18;2.78;;;1.20;;
39882;SDS011;55824;52.220;21.040;2023-03-08T12:09:54;1.77;;;1.25;;
39882;SDS011;55824;52.220;21.040;2023-03-08T12:12:34;2.33;;;1.27;;
39882;SDS011;55824;52.220;21.040;2023-03-08T12:17:52;3.17;;;1.45;;
39882;SDS011;55824;52.220;21.040;2023-03-08T12:20:18;2.97;;;1.58;;
39882;SDS011;55824;52.220;21.040;2023-03-08T12:22:51;2.20;;;1.40;;
39882;SDS011;55824;52.220;21.040;2023-03-08T12:28:01;2.35;;;1.42;;
39882;SDS011;55824;52.220;21.040;2023-03-08T12:32:57;2.50;;;1.20;;
39882;SDS011;55824;52.220;21.040;2023-03-08T12:40:27;3.03;;;1.15;;
39882;SDS011;55824;52.220;21.040;2023-03-08T12:43:04;1.90;;;1.20;;
39882;SDS011;55824;52.220;21.040;2023-03-08T12:45:30;2.05;;;1.13;;
39882;SDS011;55824;52.220;21.040;2023-03-08T12:47:59;2.65;;;1.50;;
39882;SDS011;55824;52.220;21.040;2023-03-08T12:52:52;2.65;;;1.50;;
39882;SDS011;55824;52.220;21.040;2023-03-08T12:55:21;2.75;;;1.45;;
39882;SDS011;55824;52.220;21.040;2023-03-08T12:57:55;2.92;;;1.70;;
39882;SDS011;55824;52.220;21.040;2023-03-08T13:00:23;3.03;;;1.60;;
39882;SDS011;55824;52.220;21.040;2023-03-08T13:03:00;2.78;;;1.40;;
39882;SDS011;55824;52.220;21.040;2023-03-08T13:05:29;2.42;;;1.60;;
39882;SDS011;55824;52.220;21.040;2023-03-08T13:08:02;2.70;;;1.67;;
39882;SDS011;55824;52.220;21.040;2023-03-08T13:10:36;2.20;;;1.40;;
39882;SDS011;55824;52.220;21.040;2023-03-08T13:13:05;1.92;;;1.23;;
39882;SDS011;55824;52.220;21.040;2023-03-08T13:15:31;2.67;;;1.67;;
39882;SDS011;55824;52.220;21.040;2023-03-08T13:17:59;2.60;;;1.50;;
39882;SDS011;55824;52.220;21.040;2023-03-08T13:23:01;2.53;;;1.50;;
39882;SDS011;55824;52.220;21.040;2023-03-08T13:28:13;3.25;;;1.60;;
39882;SDS011;55824;52.220;21.040;2023-03-08T13:33:27;3.75;;;1.50;;
39882;SDS011;55824;52.220;21.040;2023-03-08T13:35:54;2.88;;;1.92;;
39882;SDS011;55824;52.220;21.040;2023-03-08T13:38:21;1.75;;;1.40;;
39882;SDS011;55824;52.220;21.040;2023-03-08T13:40:51;2.38;;;1.50;;
39882;SDS011;55824;52.220;21.040;2023-03-08T13:43:19;3.40;;;1.77;;
39882;SDS011;55824;52.220;21.040;2023-03-08T13:45:46;3.17;;;1.67;;
39882;SDS011;55824;52.220;21.040;2023-03-08T13:48:12;4.25;;;2.08;;
39882;SDS011;55824;52.220;21.040;2023-03-08T13:50:43;2.97;;;1.30;;
39882;SDS011;55824;52.220;21.040;2023-03-08T13:53:12;3.28;;;1.52;;
39882;SDS011;55824;52.220;21.040;2023-03-08T13:55:41;4.40;;;1.75;;
39882;SDS011;55824;52.220;21.040;2023-03-08T13:58:20;2.78;;;1.98;;
39882;SDS011;55824;52.220;21.040;2023-03-08T14:00:56;2.97;;;1.80;;
39882;SDS011;55824;52.220;21.040;2023-03-08T14:03:22;2.78;;;1.70;;
39882;SDS011;55824;52.220;21.040;2023-03-08T14:05:48;3.03;;;1.83;;
39882;SDS011;55824;52.220;21.040;2023-03-08T14:08:18;3.10;;;1.63;;
39882;SDS011;55824;52.220;21.040;2023-03-08T14:10:49;2.83;;;1.80;;
39882;SDS011;55824;52.220;21.040;2023-03-08T14:13:18;4.28;;;1.65;;
39882;SDS011;55824;52.220;21.040;2023-03-08T14:15:51;2.67;;;1.63;;
39882;SDS011;55824;52.220;21.040;2023-03-08T14:18:22;3.58;;;1.80;;
39882;SDS011;55824;52.220;21.040;2023-03-08T14:21:12;4.22;;;1.60;;
39882;SDS011;55824;52.220;21.040;2023-03-08T14:23:40;3.15;;;1.60;;
39882;SDS011;55824;52.220;21.040;2023-03-08T14:26:21;2.80;;;1.80;;
39882;SDS011;55824;52.220;21.040;2023-03-08T14:28:47;2.42;;;1.70;;
39882;SDS011;55824;52.220;21.040;2023-03-08T14:31:26;2.63;;;1.58;;
39882;SDS011;55824;52.220;21.040;2023-03-08T14:33:54;4.05;;;1.70;;
39882;SDS011;55824;52.220;21.040;2023-03-08T14:36:20;2.97;;;1.80;;
39882;SDS011;55824;52.220;21.040;2023-03-08T14:38:47;2.78;;;1.73;;
39882;SDS011;55824;52.220;21.040;2023-03-08T14:41:13;3.33;;;1.90;;
39882;SDS011;55824;52.220;21.040;2023-03-08T14:43:40;2.50;;;1.58;;
39882;SDS011;55824;52.220;21.040;2023-03-08T14:46:14;2.15;;;1.40;;
39882;SDS011;55824;52.220;21.040;2023-03-08T14:48:41;3.22;;;1.80;;
39882;SDS011;55824;52.220;21.040;2023-03-08T14:53:53;3.63;;;1.80;;
39882;SDS011;55824;52.220;21.040;2023-03-08T14:56:20;4.60;;;1.80;;
39882;SDS011;55824;52.220;21.040;2023-03-08T14:58:46;2.85;;;1.65;;
39882;SDS011;55824;52.220;21.040;2023-03-08T15:01:22;3.05;;;1.73;;
39882;SDS011;55824;52.220;21.040;2023-03-08T15:03:48;3.40;;;1.80;;
39882;SDS011;55824;52.220;21.040;2023-03-08T15:06:16;4.07;;;1.48;;
39882;SDS011;55824;52.220;21.040;2023-03-08T15:08:44;2.78;;;1.70;;
39882;SDS011;55824;52.220;21.040;2023-03-08T15:11:10;3.22;;;1.88;;
39882;SDS011;55824;52.220;21.040;2023-03-08T15:13:36;3.13;;;1.85;;
39882;SDS011;55824;52.220;21.040;2023-03-08T15:16:02;2.90;;;1.58;;
39882;SDS011;55824;52.220;21.040;2023-03-08T15:18:28;2.70;;;1.85;;
39882;SDS011;55824;52.220;21.040;2023-03-08T15:20:54;3.65;;;1.80;;
39882;SDS011;55824;52.220;21.040;2023-03-08T15:23:23;2.28;;;1.55;;
39882;SDS011;55824;52.220;21.040;2023-03-08T15:25:50;1.95;;;1.40;;
39882;SDS011;55824;52.220;21.040;2023-03-08T15:28:17;3.45;;;1.63;;
39882;SDS011;55824;52.220;21.040;2023-03-08T15:30:43;3.15;;;1.60;;
39882;SDS011;55824;52.220;21.040;2023-03-08T15:33:09;2.42;;;1.60;;
39882;SDS011;55824;52.220;21.040;2023-03-08T15:35:36;2.22;;;1.70;;
39882;SDS011;55824;52.220;21.040;2023-03-08T15:38:02;2.30;;;1.77;;
39882;SDS011;55824;52.220;21.040;2023-03-08T15:40:30;3.35;;;1.88;;
39882;SDS011;55824;52.220;21.040;2023-03-08T15:42:56;2.65;;;1.60;;
39882;SDS011;55824;52.220;21.040;2023-03-08T15:45:22;3.05;;;1.92;;
39882;SDS011;55824;52.220;21.040;2023-03-08T15:47:58;2.90;;;1.60;;
39882;SDS011;55824;52.220;21.040;2023-03-08T15:50:25;2.67;;;2.00;;
39882;SDS011;55824;52.220;21.040;2023-03-08T15:52:51;2.80;;;1.85;;